Time;durP1;ratioP1;P1;durP2;ratioP2;P2;SDS_P1;SDS_P2;PMS_P1;PMS_P2;Temp;Humidity;BMP_temperature;BMP_pressure;BME280_temperature;BME280_humidity;BME280_pressure;Samples;Min_cycle;Max_cycle;Signal;HPM_P1;HPM_P2
2022/06/25 00:01:51;;;;;;;21.05;18.77;;;20.40;99.90;;;;;;5025473;28;20412;-74
2022/06/25 00:07:01;;;;;;;20.65;17.90;;;20.20;99.90;;;;;;5029558;28;20025;-75
2022/06/25 00:09:28;;;;;;;21.63;18.20;;;20.20;99.90;;;;;;5034069;28;20539;-74
2022/06/25 00:14:38;;;;;;;23.30;18.98;;;20.10;99.90;;;;;;5034976;28;20623;-74
2022/06/25 00:17:04;;;;;;;26.35;22.17;;;20.10;99.90;;;;;;5031138;28;20124;-73
2022/06/25 00:19:30;;;;;;;26.85;22.85;;;20.10;99.90;;;;;;5032982;28;20026;-73
2022/06/25 00:21:56;;;;;;;25.42;21.17;;;20.10;99.90;;;;;;5034162;28;20025;-74
2022/06/25 00:24:22;;;;;;;28.77;22.98;;;20.10;99.90;;;;;;5033502;28;20098;-73
2022/06/25 00:26:47;;;;;;;27.45;22.67;;;20.10;99.90;;;;;;5034685;28;20060;-73
2022/06/25 00:29:14;;;;;;;25.98;23.20;;;20.10;99.90;;;;;;5033414;28;20494;-74
2022/06/25 00:31:40;;;;;;;29.73;24.45;;;20.10;99.90;;;;;;5034419;28;20055;-73
2022/06/25 00:34:06;;;;;;;28.23;23.63;;;20.10;99.90;;;;;;5029244;28;20021;-72
2022/06/25 00:36:32;;;;;;;28.05;23.23;;;20.10;99.90;;;;;;5031045;28;20049;-72
2022/06/25 00:38:58;;;;;;;28.58;23.45;;;20.00;99.90;;;;;;5031826;28;20021;-73
2022/06/25 00:41:24;;;;;;;32.28;25.25;;;20.00;99.90;;;;;;5034367;28;20093;-74
2022/06/25 00:43:50;;;;;;;26.67;22.35;;;19.90;99.90;;;;;;5031856;28;20565;-74
2022/06/25 00:46:15;;;;;;;30.13;25.45;;;19.90;99.90;;;;;;5028184;28;20038;-73
2022/06/25 00:48:41;;;;;;;24.65;21.00;;;19.90;99.90;;;;;;5033274;28;20038;-72
2022/06/25 00:51:12;;;;;;;29.67;24.67;;;19.90;99.90;;;;;;5030256;28;20116;-72
2022/06/25 00:53:40;;;;;;;;;;;19.90;99.90;;;;;;5033755;28;20391;-73
2022/06/25 00:56:08;;;;;;;28.23;22.67;;;19.90;99.90;;;;;;5029781;28;19940;-73
2022/06/25 00:58:38;;;;;;;28.88;23.75;;;19.80;99.90;;;;;;5033214;28;20537;-74
2022/06/25 01:01:08;;;;;;;27.30;22.63;;;19.90;99.90;;;;;;5025702;28;20400;-75
2022/06/25 01:03:34;;;;;;;33.20;26.45;;;19.90;99.90;;;;;;5011480;28;20517;-74
2022/06/25 01:06:01;;;;;;;33.90;26.88;;;20.00;99.90;;;;;;5029252;28;20038;-75
2022/06/25 01:08:27;;;;;;;29.45;23.25;;;20.00;99.90;;;;;;5029939;28;20040;-74
2022/06/25 01:10:54;;;;;;;29.73;24.55;;;20.00;99.90;;;;;;5026485;28;20116;-74
2022/06/25 01:13:24;;;;;;;35.08;26.30;;;20.00;99.90;;;;;;5031122;28;20032;-75
2022/06/25 01:15:50;;;;;;;32.30;24.45;;;20.00;99.90;;;;;;5035142;28;20037;-74
2022/06/25 01:18:16;;;;;;;30.63;25.38;;;20.00;99.90;;;;;;5026257;28;20033;-75
2022/06/25 01:20:45;;;;;;;31.60;25.23;;;20.00;99.90;;;;;;5014412;28;20106;-74
2022/06/25 01:23:13;;;;;;;31.58;24.83;;;19.90;99.90;;;;;;5030402;28;20025;-74
2022/06/25 01:25:40;;;;;;;30.92;24.63;;;19.90;99.90;;;;;;5028623;28;20053;-72
2022/06/25 01:28:06;;;;;;;27.80;22.55;;;19.90;99.90;;;;;;5030703;28;20400;-72
2022/06/25 01:30:32;;;;;;;27.70;24.33;;;19.90;99.90;;;;;;5030620;28;20528;-75
2022/06/25 01:32:58;;;;;;;29.80;23.40;;;19.90;99.90;;;;;;5027315;28;20413;-75
2022/06/25 01:35:24;;;;;;;32.20;25.73;;;19.90;99.90;;;;;;5027030;28;20041;-74
2022/06/25 01:37:50;;;;;;;31.10;25.88;;;19.90;99.90;;;;;;5032064;28;20021;-75
2022/06/25 01:40:17;;;;;;;26.98;22.77;;;19.90;99.90;;;;;;5030477;28;20881;-74
2022/06/25 01:42:58;;;;;;;31.45;23.95;;;19.90;99.90;;;;;;5014894;28;20505;-75
2022/06/25 01:45:24;;;;;;;29.25;24.17;;;19.90;99.90;;;;;;5030943;28;20045;-76
2022/06/25 01:47:49;;;;;;;31.95;25.48;;;19.90;99.90;;;;;;5031242;28;20393;-72
2022/06/25 01:50:16;;;;;;;33.63;25.30;;;19.90;99.90;;;;;;5030258;28;20100;-73
2022/06/25 01:52:46;;;;;;;35.65;27.13;;;19.80;99.90;;;;;;5026804;28;20033;-73
2022/06/25 01:55:12;;;;;;;31.92;27.13;;;19.80;99.90;;;;;;5033353;28;20034;-74
2022/06/25 01:57:38;;;;;;;46.17;37.75;;;19.80;99.90;;;;;;5031466;28;20523;-73
2022/06/25 02:00:06;;;;;;;39.00;33.00;;;19.70;99.90;;;;;;5018113;28;20029;-72
2022/06/25 02:02:32;;;;;;;31.38;25.58;;;19.60;99.90;;;;;;5038482;28;20053;-72
2022/06/25 02:04:58;;;;;;;39.17;30.73;;;19.50;99.90;;;;;;5035926;28;20057;-73
2022/06/25 02:07:23;;;;;;;32.15;28.08;;;19.60;99.90;;;;;;5026824;28;20026;-74
2022/06/25 02:09:49;;;;;;;39.80;30.58;;;19.60;99.90;;;;;;5034150;28;20458;-73
2022/06/25 02:12:15;;;;;;;35.30;28.45;;;19.50;99.90;;;;;;5035842;28;20197;-74
2022/06/25 02:14:41;;;;;;;30.88;25.80;;;19.50;99.90;;;;;;5031204;28;20159;-73
2022/06/25 02:17:07;;;;;;;36.58;29.92;;;19.50;99.90;;;;;;5026064;28;20124;-73
2022/06/25 02:19:32;;;;;;;35.97;28.48;;;19.50;99.90;;;;;;5032151;28;20115;-73
2022/06/25 02:21:58;;;;;;;33.05;27.52;;;19.50;99.90;;;;;;5032389;28;20029;-75
2022/06/25 02:24:24;;;;;;;36.65;26.88;;;19.40;99.90;;;;;;5029703;28;20514;-74
2022/06/25 02:26:49;;;;;;;33.65;27.40;;;19.40;99.90;;;;;;5031191;28;20029;-74
2022/06/25 02:29:15;;;;;;;35.80;30.45;;;19.40;99.90;;;;;;5014977;28;20040;-73
2022/06/25 02:31:41;;;;;;;39.45;31.70;;;19.40;99.90;;;;;;5029315;28;20038;-73
2022/06/25 02:34:06;;;;;;;35.75;29.52;;;19.40;99.90;;;;;;5011448;28;20021;-73
2022/06/25 02:36:32;;;;;;;36.90;30.60;;;19.50;99.90;;;;;;5032495;28;20021;-74
2022/06/25 02:38:58;;;;;;;37.80;29.48;;;19.30;99.90;;;;;;5024475;28;20032;-74
2022/06/25 02:41:24;;;;;;;38.53;29.65;;;19.30;99.90;;;;;;5028788;28;20032;-74
2022/06/25 02:43:49;;;;;;;37.38;30.70;;;19.30;99.90;;;;;;5028731;28;20089;-74
2022/06/25 02:46:16;;;;;;;37.50;30.23;;;19.30;99.90;;;;;;5032788;28;20086;-73
2022/06/25 02:48:42;;;;;;;33.47;25.58;;;19.30;99.90;;;;;;5028013;28;20030;-76
2022/06/25 02:51:08;;;;;;;35.65;29.08;;;19.20;99.90;;;;;;5022193;28;20058;-74
2022/06/25 02:53:33;;;;;;;36.40;29.85;;;19.20;99.90;;;;;;5018085;28;20026;-75
2022/06/25 02:58:58;;;;;;;36.42;29.48;;;19.20;99.90;;;;;;5020702;28;20024;-74
2022/06/25 03:01:26;;;;;;;36.75;30.17;;;19.20;99.90;;;;;;5023496;28;20040;-77
2022/06/25 03:03:52;;;;;;;40.08;33.08;;;19.20;99.90;;;;;;5030163;28;20086;-73
2022/06/25 03:06:19;;;;;;;37.58;31.65;;;19.20;99.90;;;;;;5022433;28;20128;-73
2022/06/25 03:08:45;;;;;;;39.13;31.02;;;19.20;99.90;;;;;;5017690;28;20409;-74
2022/06/25 03:11:11;;;;;;;37.80;30.45;;;19.20;99.90;;;;;;5022497;28;20033;-75
2022/06/25 03:13:37;;;;;;;38.45;32.05;;;19.20;99.90;;;;;;5028793;28;20036;-73
2022/06/25 03:16:04;;;;;;;37.05;31.67;;;19.10;99.90;;;;;;5022748;28;20063;-73
2022/06/25 03:18:32;;;;;;;36.95;30.60;;;19.10;99.90;;;;;;5025067;28;20626;-73
2022/06/25 03:20:57;;;;;;;40.08;32.25;;;19.10;99.90;;;;;;5020410;28;20037;-73
2022/06/25 03:23:23;;;;;;;35.05;28.40;;;19.20;99.90;;;;;;5021753;28;20047;-74
2022/06/25 03:25:49;;;;;;;33.08;27.50;;;19.20;99.90;;;;;;5026615;28;20032;-73
2022/06/25 03:28:15;;;;;;;36.13;28.52;;;19.20;99.90;;;;;;5024274;28;20025;-74
2022/06/25 03:30:41;;;;;;;38.63;31.35;;;19.20;99.90;;;;;;5022512;28;20026;-73
2022/06/25 03:33:07;;;;;;;35.60;28.77;;;19.20;99.90;;;;;;5020600;28;20040;-74
2022/06/25 03:35:33;;;;;;;40.08;30.55;;;19.20;99.90;;;;;;5027436;28;20038;-72
2022/06/25 03:37:59;;;;;;;40.25;31.25;;;19.20;99.90;;;;;;5025434;28;20025;-73
2022/06/25 03:40:25;;;;;;;37.65;27.77;;;19.30;99.90;;;;;;5019190;28;20401;-76
2022/06/25 03:42:51;;;;;;;31.10;25.60;;;19.20;99.90;;;;;;5027849;28;20064;-74
2022/06/25 03:45:17;;;;;;;32.92;25.20;;;19.20;99.90;;;;;;5031755;28;20125;-73
2022/06/25 03:47:50;;;;;;;33.50;26.42;;;19.20;99.90;;;;;;5026215;28;20080;-73
2022/06/25 03:50:20;;;;;;;32.25;26.55;;;19.10;99.90;;;;;;5025555;28;20037;-74
2022/06/25 03:52:47;;;;;;;31.35;25.38;;;19.10;99.90;;;;;;5026715;28;20106;-74
2022/06/25 03:55:13;;;;;;;29.58;24.13;;;19.10;99.90;;;;;;5007823;28;20053;-74
2022/06/25 03:57:39;;;;;;;28.70;21.98;;;19.20;99.90;;;;;;5030412;28;20038;-74
2022/06/25 04:00:06;;;;;;;28.48;23.85;;;19.10;99.90;;;;;;5026485;28;20069;-74
2022/06/25 04:02:33;;;;;;;27.50;21.95;;;19.20;99.90;;;;;;5027784;28;20041;-74
2022/06/25 04:05:00;;;;;;;27.27;22.67;;;19.10;99.90;;;;;;5029399;28;20033;-74
2022/06/25 04:07:26;;;;;;;24.00;20.15;;;19.10;99.90;;;;;;5034881;28;20033;-75
2022/06/25 04:09:52;;;;;;;25.73;20.05;;;19.10;99.90;;;;;;5025344;28;21001;-73
2022/06/25 04:12:17;;;;;;;21.88;18.80;;;19.10;99.90;;;;;;5025398;28;20047;-73
2022/06/25 04:14:43;;;;;;;29.85;23.20;;;19.10;99.90;;;;;;5023621;28;20083;-74
2022/06/25 04:17:10;;;;;;;27.23;21.42;;;19.10;99.90;;;;;;5027549;28;20084;-73
2022/06/25 04:19:40;;;;;;;27.77;22.33;;;19.10;99.90;;;;;;5024306;28;20104;-75
2022/06/25 04:22:14;;;;;;;29.13;23.38;;;19.10;99.90;;;;;;5026101;28;20057;-74
2022/06/25 04:24:40;;;;;;;29.45;24.02;;;19.10;99.90;;;;;;5021773;28;20041;-73
2022/06/25 04:27:07;;;;;;;27.55;22.48;;;19.20;99.90;;;;;;5026243;28;20041;-74
2022/06/25 04:29:33;;;;;;;24.55;20.30;;;19.10;99.90;;;;;;5029870;28;20691;-74
2022/06/25 04:31:59;;;;;;;23.73;19.42;;;19.20;99.90;;;;;;5033668;28;20041;-73
2022/06/25 04:34:24;;;;;;;25.70;21.67;;;19.20;99.90;;;;;;5025213;28;20073;-74
2022/06/25 04:36:50;;;;;;;24.55;20.42;;;19.20;99.90;;;;;;5043965;28;20348;-74
2022/06/25 04:39:16;;;;;;;28.70;21.25;;;19.20;99.90;;;;;;5029945;28;20056;-73
2022/06/25 04:41:42;;;;;;;25.33;20.30;;;19.20;99.90;;;;;;5024304;28;20061;-73
2022/06/25 04:44:08;;;;;;;25.17;21.52;;;19.20;99.90;;;;;;5029735;28;20025;-72
2022/06/25 04:46:34;;;;;;;23.58;19.65;;;19.30;99.90;;;;;;5034079;28;20167;-73
2022/06/25 04:48:59;;;;;;;22.27;18.98;;;19.30;99.90;;;;;;5026759;28;20099;-73
2022/06/25 04:51:26;;;;;;;23.45;19.90;;;19.30;99.90;;;;;;5026543;28;20053;-75
2022/06/25 04:53:57;;;;;;;24.40;19.05;;;19.30;99.90;;;;;;5027962;28;20018;-73
2022/06/25 04:56:28;;;;;;;22.92;17.85;;;19.30;99.90;;;;;;5026763;28;20029;-74
2022/06/25 04:58:55;;;;;;;23.75;19.60;;;19.30;99.90;;;;;;5022006;28;20056;-75
2022/06/25 05:01:22;;;;;;;24.40;20.52;;;19.40;99.90;;;;;;5024651;28;20029;-73
2022/06/25 05:03:48;;;;;;;20.60;17.85;;;19.40;99.90;;;;;;5020715;28;20101;-73
2022/06/25 05:06:14;;;;;;;20.55;18.35;;;19.40;99.90;;;;;;5024711;28;20108;-74
2022/06/25 05:08:41;;;;;;;21.42;17.15;;;19.40;99.90;;;;;;5023489;28;20113;-74
2022/06/25 05:11:07;;;;;;;20.77;18.45;;;19.40;99.90;;;;;;5024611;28;20037;-73
2022/06/25 05:13:33;;;;;;;23.17;18.23;;;19.40;99.90;;;;;;5023759;28;20029;-73
2022/06/25 05:15:59;;;;;;;23.40;18.83;;;19.40;99.90;;;;;;5023839;28;20075;-73
2022/06/25 05:18:24;;;;;;;21.83;17.35;;;19.40;99.90;;;;;;5020866;28;20571;-73
2022/06/25 05:20:50;;;;;;;19.27;16.67;;;19.40;99.90;;;;;;5019383;28;20037;-73
2022/06/25 05:23:17;;;;;;;19.23;16.38;;;19.40;99.90;;;;;;5009828;28;20030;-73
2022/06/25 05:25:42;;;;;;;19.50;16.20;;;19.40;99.90;;;;;;5029871;28;20044;-73
2022/06/25 05:28:08;;;;;;;16.83;15.02;;;19.40;99.90;;;;;;5020067;28;20489;-73
2022/06/25 05:30:35;;;;;;;14.75;13.15;;;19.40;99.90;;;;;;5027153;28;20432;-73
2022/06/25 05:33:00;;;;;;;16.55;14.02;;;19.50;99.90;;;;;;5025382;28;20039;-73
2022/06/25 05:35:27;;;;;;;15.90;12.68;;;19.50;99.90;;;;;;5029976;28;20030;-74
2022/06/25 05:37:53;;;;;;;16.17;14.43;;;19.50;99.90;;;;;;5030084;28;20033;-75
2022/06/25 05:40:19;;;;;;;16.45;12.90;;;19.60;99.90;;;;;;5025955;28;20040;-73
2022/06/25 05:42:45;;;;;;;16.23;13.55;;;19.70;99.90;;;;;;5029908;28;20045;-73
2022/06/25 05:45:11;;;;;;;15.30;13.15;;;19.70;99.90;;;;;;5021056;28;20037;-73
2022/06/25 05:47:37;;;;;;;13.50;12.15;;;19.90;99.90;;;;;;5023182;28;20030;-74
2022/06/25 05:50:04;;;;;;;16.35;14.57;;;19.90;99.90;;;;;;5020575;28;20168;-73
2022/06/25 05:52:29;;;;;;;14.95;13.38;;;19.90;99.90;;;;;;5022915;28;20037;-74
2022/06/25 05:54:57;;;;;;;12.88;11.07;;;19.90;99.90;;;;;;5031812;28;20036;-75
2022/06/25 05:57:23;;;;;;;12.27;10.98;;;20.00;99.90;;;;;;5024238;28;20516;-76
2022/06/25 05:59:49;;;;;;;13.25;11.57;;;20.00;99.90;;;;;;5022835;28;20052;-74
2022/06/25 06:02:15;;;;;;;11.25;9.55;;;20.10;99.90;;;;;;5023659;28;20056;-74
2022/06/25 06:04:41;;;;;;;13.52;12.10;;;20.30;99.90;;;;;;5005122;28;20029;-75
2022/06/25 06:07:07;;;;;;;13.82;11.32;;;20.30;99.90;;;;;;5015773;28;20113;-76
2022/06/25 06:09:34;;;;;;;14.02;11.25;;;20.40;99.90;;;;;;5020317;28;20120;-73
2022/06/25 06:12:01;;;;;;;10.35;9.32;;;20.40;99.90;;;;;;5022785;28;20163;-75
2022/06/25 06:14:27;;;;;;;11.65;10.45;;;20.50;99.90;;;;;;5017439;28;20029;-76
2022/06/25 06:16:53;;;;;;;14.93;11.48;;;20.70;99.90;;;;;;5022802;28;20065;-77
2022/06/25 06:19:19;;;;;;;13.55;10.55;;;20.80;99.90;;;;;;5016325;28;20161;-76
2022/06/25 06:21:44;;;;;;;12.65;11.35;;;20.90;99.90;;;;;;5026013;28;20071;-74
2022/06/25 06:24:11;;;;;;;13.63;12.02;;;20.90;99.90;;;;;;5021245;28;20038;-74
2022/06/25 06:26:37;;;;;;;16.10;11.05;;;21.00;99.90;;;;;;5021956;28;20040;-73
2022/06/25 06:29:03;;;;;;;14.73;12.32;;;20.90;99.90;;;;;;5022377;28;20044;-73
2022/06/25 06:31:29;;;;;;;13.25;10.77;;;21.00;99.90;;;;;;5022393;28;20967;-74
2022/06/25 06:33:55;;;;;;;16.77;12.25;;;21.00;99.90;;;;;;5024025;28;20045;-73
2022/06/25 06:36:21;;;;;;;9.20;8.30;;;21.00;99.90;;;;;;5018765;28;20036;-73
2022/06/25 06:38:47;;;;;;;11.48;8.85;;;21.00;99.90;;;;;;5020079;28;20033;-73
2022/06/25 06:41:16;;;;;;;9.77;8.43;;;21.20;99.90;;;;;;5004905;28;20087;-73
2022/06/25 06:43:42;;;;;;;10.82;9.73;;;21.20;99.90;;;;;;5027568;28;20193;-73
2022/06/25 06:46:08;;;;;;;11.40;10.20;;;21.30;99.90;;;;;;5024924;28;20572;-74
2022/06/25 06:48:34;;;;;;;13.18;10.82;;;21.40;99.90;;;;;;5016127;28;20598;-76
2022/06/25 06:51:00;;;;;;;8.73;7.72;;;21.40;99.90;;;;;;5016142;28;20044;-78
2022/06/25 06:53:25;;;;;;;10.55;8.50;;;21.40;99.90;;;;;;5014696;28;20036;-80
2022/06/25 06:55:51;;;;;;;12.35;9.55;;;21.50;99.90;;;;;;5016774;28;20042;-76
2022/06/25 06:58:18;;;;;;;8.07;5.88;;;21.60;99.90;;;;;;5001505;28;20079;-76
2022/06/25 07:00:45;;;;;;;7.80;7.00;;;21.60;99.90;;;;;;5007459;28;20075;-75
2022/06/25 07:03:12;;;;;;;8.32;7.38;;;21.70;99.90;;;;;;5025920;28;20108;-77
2022/06/25 07:05:46;;;;;;;6.05;5.45;;;21.80;99.90;;;;;;5022893;28;20043;-74
2022/06/25 07:08:12;;;;;;;7.88;6.90;;;21.90;99.90;;;;;;5022221;28;20088;-75
2022/06/25 07:10:38;;;;;;;5.78;5.25;;;21.90;99.90;;;;;;5020113;28;20041;-79
2022/06/25 07:13:04;;;;;;;6.35;5.70;;;22.00;99.90;;;;;;5002578;28;20030;-78
2022/06/25 07:15:30;;;;;;;5.97;5.38;;;22.00;99.90;;;;;;5002164;28;20033;-76
2022/06/25 07:17:57;;;;;;;6.43;5.78;;;22.00;99.90;;;;;;4998641;28;20786;-80
2022/06/25 07:20:23;;;;;;;6.15;5.53;;;22.10;99.90;;;;;;5007161;28;20053;-80
2022/06/25 07:22:49;;;;;;;6.80;6.15;;;22.10;99.90;;;;;;5024941;28;20064;-79
2022/06/25 07:25:15;;;;;;;7.22;6.53;;;22.20;99.90;;;;;;5017393;28;20064;-74
2022/06/25 07:27:44;;;;;;;8.65;6.60;;;22.20;99.90;;;;;;5012925;28;20405;-81
2022/06/25 07:30:11;;;;;;;7.05;6.22;;;22.30;99.90;;;;;;5008751;28;20997;-80
2022/06/25 07:32:37;;;;;;;7.47;6.68;;;22.30;99.90;;;;;;5007550;28;20121;-77
2022/06/25 07:35:03;;;;;;;6.25;5.65;;;22.40;99.90;;;;;;5005567;28;20029;-79
2022/06/25 07:37:30;;;;;;;6.05;5.40;;;22.40;99.90;;;;;;5014352;28;20057;-80
2022/06/25 07:39:56;;;;;;;6.40;5.15;;;22.50;99.90;;;;;;5025527;28;20034;-80
2022/06/25 07:42:22;;;;;;;21.40;6.60;;;22.50;99.90;;;;;;5021231;28;20057;-76
2022/06/25 07:44:48;;;;;;;21.63;6.22;;;22.60;99.90;;;;;;5010328;28;20132;-75
2022/06/25 07:47:13;;;;;;;5.93;4.82;;;22.60;99.90;;;;;;5021263;28;20038;-76
2022/06/25 07:52:24;;;;;;;9.23;4.82;;;22.60;99.90;;;;;;5018007;28;20490;-74
2022/06/25 07:54:49;;;;;;;7.82;4.90;;;22.60;99.90;;;;;;5015615;28;20044;-74
2022/06/25 07:57:16;;;;;;;6.97;4.90;;;22.60;99.90;;;;;;5015942;28;20033;-74
2022/06/25 07:59:42;;;;;;;6.35;4.15;;;22.60;99.90;;;;;;5014874;28;20064;-75
2022/06/25 08:02:08;;;;;;;7.38;4.18;;;22.60;99.90;;;;;;5016699;28;20488;-76
2022/06/25 08:04:34;;;;;;;4.10;3.80;;;22.60;99.90;;;;;;5010666;28;20842;-73
2022/06/25 08:07:00;;;;;;;6.00;4.13;;;22.70;99.90;;;;;;5014647;28;20057;-76
2022/06/25 08:09:26;;;;;;;7.68;4.30;;;22.70;99.90;;;;;;5005294;28;20069;-75
2022/06/25 08:11:52;;;;;;;4.57;4.18;;;22.70;99.90;;;;;;5013074;28;20045;-75
2022/06/25 08:14:17;;;;;;;7.15;5.32;;;22.80;99.90;;;;;;5020787;28;20029;-74
2022/06/25 08:16:43;;;;;;;5.97;5.45;;;22.80;99.90;;;;;;5023413;28;20041;-74
2022/06/25 08:19:09;;;;;;;5.80;5.20;;;22.90;99.90;;;;;;5022180;28;20109;-74
2022/06/25 08:21:35;;;;;;;6.22;5.18;;;22.90;99.90;;;;;;5015061;28;20567;-74
2022/06/25 08:24:00;;;;;;;6.70;6.07;;;22.90;99.90;;;;;;5004804;28;20056;-74
2022/06/25 08:26:26;;;;;;;5.93;5.22;;;23.10;99.90;;;;;;5014552;28;20032;-74
2022/06/25 08:28:52;;;;;;;5.95;5.35;;;23.10;99.90;;;;;;5015932;28;20121;-74
2022/06/25 08:31:18;;;;;;;5.70;5.05;;;23.10;99.90;;;;;;5001503;28;20072;-74
2022/06/25 08:33:44;;;;;;;5.95;5.13;;;23.20;99.90;;;;;;5018708;28;20042;-74
2022/06/25 08:36:10;;;;;;;7.97;5.80;;;23.20;99.90;;;;;;5023216;28;20038;-74
2022/06/25 08:38:36;;;;;;;6.78;4.82;;;23.20;99.90;;;;;;5017816;28;20068;-74
2022/06/25 08:41:02;;;;;;;9.10;8.30;;;23.30;99.90;;;;;;5009102;28;20036;-74
2022/06/25 08:43:29;;;;;;;5.95;5.30;;;23.30;99.90;;;;;;5015049;28;20476;-74
2022/06/25 08:45:55;;;;;;;5.38;4.88;;;23.40;99.90;;;;;;5019765;28;20032;-74
2022/06/25 08:48:32;;;;;;;7.05;5.32;;;23.40;99.90;;;;;;5010878;28;20504;-75
2022/06/25 08:50:59;;;;;;;6.32;5.57;;;23.30;99.90;;;;;;5009822;28;20155;-76
2022/06/25 08:53:31;;;;;;;6.13;5.63;;;23.30;99.90;;;;;;5027172;28;20112;-74
2022/06/25 08:55:57;;;;;;;5.43;4.93;;;23.30;99.90;;;;;;5030729;28;20124;-73
2022/06/25 08:58:23;;;;;;;7.32;6.63;;;23.30;99.90;;;;;;5023264;28;20052;-73
2022/06/25 09:00:49;;;;;;;11.35;8.80;;;23.30;99.90;;;;;;5027687;28;20660;-74
2022/06/25 09:03:14;;;;;;;8.45;7.50;;;23.30;99.90;;;;;;5023979;28;20037;-73
2022/06/25 09:05:43;;;;;;;6.68;5.97;;;23.50;99.90;;;;;;5024349;28;20032;-73
2022/06/25 09:08:13;;;;;;;8.43;7.00;;;23.60;99.90;;;;;;5014421;28;20034;-73
2022/06/25 09:10:42;;;;;;;6.25;5.10;;;23.80;99.90;;;;;;5022381;28;20025;-73
2022/06/25 09:13:10;;;;;;;7.07;6.15;;;24.00;99.90;;;;;;5005546;28;20037;-78
2022/06/25 09:15:39;;;;;;;9.75;7.32;;;24.10;99.90;;;;;;5019268;28;20691;-73
2022/06/25 09:18:16;;;;;;;8.02;6.55;;;24.20;99.90;;;;;;5024078;28;20029;-74
2022/06/25 09:20:59;;;;;;;5.55;5.05;;;24.30;99.90;;;;;;5030002;28;20199;-73
2022/06/25 09:23:27;;;;;;;8.50;5.88;;;24.30;99.90;;;;;;5019722;28;20466;-75
2022/06/25 09:26:09;;;;;;;8.15;5.90;;;24.40;99.90;;;;;;5041497;28;20127;-75
2022/06/25 09:28:38;;;;;;;6.57;5.80;;;24.40;99.90;;;;;;5025730;28;20037;-75
2022/06/25 09:31:04;;;;;;;9.82;8.88;;;24.40;99.90;;;;;;5028872;28;20694;-75
2022/06/25 09:33:31;;;;;;;7.13;6.07;;;24.50;99.90;;;;;;5011106;28;20029;-75
2022/06/25 09:35:58;;;;;;;7.80;5.57;;;24.50;99.90;;;;;;5021859;28;20025;-75
2022/06/25 09:38:24;;;;;;;8.38;6.13;;;24.50;99.90;;;;;;5025215;28;20029;-75
2022/06/25 09:40:57;;;;;;;6.63;5.40;;;24.70;99.90;;;;;;5033695;28;20123;-75
2022/06/25 09:43:29;;;;;;;5.68;5.13;;;24.70;99.90;;;;;;5035260;28;20034;-75
2022/06/25 09:46:01;;;;;;;4.20;3.80;;;24.70;99.90;;;;;;5019200;28;20061;-76
2022/06/25 09:48:29;;;;;;;3.80;3.50;;;24.80;99.90;;;;;;5032207;28;20099;-75
2022/06/25 09:51:10;;;;;;;5.70;4.60;;;24.80;99.90;;;;;;5029492;28;20034;-75
2022/06/25 09:53:57;;;;;;;5.03;4.60;;;24.90;99.90;;;;;;5030090;28;20084;-76
2022/06/25 09:56:41;;;;;;;6.45;4.70;;;24.80;99.90;;;;;;4993600;28;20114;-75
2022/06/25 09:59:06;;;;;;;5.25;4.22;;;24.80;99.90;;;;;;5023207;28;20043;-74
2022/06/25 10:01:32;;;;;;;7.60;4.63;;;24.80;99.90;;;;;;5012325;28;20033;-74
2022/06/25 10:04:03;;;;;;;4.75;4.22;;;24.80;99.90;;;;;;5020871;28;20079;-75
2022/06/25 10:06:34;;;;;;;4.30;3.90;;;24.90;99.90;;;;;;5028328;28;20595;-74
2022/06/25 10:09:03;;;;;;;3.97;3.40;;;24.90;99.90;;;;;;5028430;28;20064;-72
2022/06/25 10:11:31;;;;;;;4.30;3.30;;;25.00;99.90;;;;;;5024374;28;20037;-74
2022/06/25 10:13:57;;;;;;;3.63;3.08;;;25.00;99.90;;;;;;5020103;28;20029;-74
2022/06/25 10:16:24;;;;;;;3.67;2.80;;;25.00;99.90;;;;;;5029979;28;20493;-78
2022/06/25 10:18:51;;;;;;;3.70;2.30;;;25.00;99.90;;;;;;5033025;28;20033;-74
2022/06/25 10:21:19;;;;;;;2.40;2.20;;;25.00;99.30;;;;;;5024156;28;20025;-77
2022/06/25 10:24:01;;;;;;;4.10;2.45;;;25.10;99.20;;;;;;5023079;28;20060;-77
2022/06/25 10:26:27;;;;;;;2.85;2.58;;;25.10;97.80;;;;;;5029712;28;20074;-75
2022/06/25 10:28:53;;;;;;;3.97;2.58;;;25.10;98.00;;;;;;5023406;28;20435;-73
2022/06/25 10:31:19;;;;;;;3.22;2.95;;;25.10;98.60;;;;;;5030109;28;20087;-70
2022/06/25 10:33:59;;;;;;;2.47;2.28;;;25.10;97.80;;;;;;5026894;28;20175;-75
2022/06/25 10:36:46;;;;;;;2.70;2.50;;;25.20;98.50;;;;;;5013546;28;20044;-77
2022/06/25 10:39:28;;;;;;;2.35;2.10;;;25.20;97.10;;;;;;5025634;28;20028;-77
2022/06/25 10:45:31;;;;;;;4.03;2.10;;;25.40;98.50;;;;;;5016664;28;20048;-73
2022/06/25 10:47:59;;;;;;;3.25;2.40;;;25.40;97.80;;;;;;5027547;28;20051;-75
2022/06/25 10:50:27;;;;;;;3.88;2.63;;;25.40;97.70;;;;;;5033337;28;20067;-74
2022/06/25 10:53:03;;;;;;;3.33;2.40;;;25.40;97.40;;;;;;5028170;28;20033;-75
2022/06/25 10:55:47;;;;;;;2.97;2.50;;;25.50;97.50;;;;;;5029371;28;20021;-74
2022/06/25 10:58:17;;;;;;;3.70;2.25;;;25.50;97.20;;;;;;5025944;28;20102;-75
2022/06/25 11:00:46;;;;;;;;;;;25.50;97.80;;;;;;5029108;28;20058;-76
2022/06/25 11:03:13;;;;;;;2.88;2.20;;;25.50;97.60;;;;;;5028161;28;20339;-74
2022/06/25 11:05:46;;;;;;;3.55;2.40;;;25.50;97.30;;;;;;5028670;28;20533;-74
2022/06/25 11:08:12;;;;;;;4.30;2.78;;;25.60;97.50;;;;;;5013989;28;20515;-74
2022/06/25 11:10:40;;;;;;;2.35;2.00;;;25.60;97.10;;;;;;5027865;28;20103;-74
2022/06/25 11:13:07;;;;;;;2.63;2.05;;;25.70;97.50;;;;;;5016090;28;20033;-75
2022/06/25 11:15:44;;;;;;;2.53;2.33;;;25.70;97.60;;;;;;5029578;28;20021;-74
2022/06/25 11:18:14;;;;;;;4.32;2.72;;;25.80;97.30;;;;;;5026310;28;20024;-74
2022/06/25 11:20:41;;;;;;;4.35;2.30;;;25.90;97.20;;;;;;5028687;28;20069;-74
2022/06/25 11:23:12;;;;;;;3.72;2.38;;;25.90;97.40;;;;;;5027821;28;20488;-74
2022/06/25 11:31:17;;;;;;;4.20;2.85;;;26.20;96.20;;;;;;5019130;28;20036;-73
2022/06/25 11:33:43;;;;;;;3.40;2.83;;;26.20;96.80;;;;;;5026959;28;20041;-74
2022/06/25 11:36:11;;;;;;;2.75;2.47;;;26.30;96.80;;;;;;5028403;28;20032;-73
2022/06/25 11:38:36;;;;;;;4.65;2.58;;;26.30;95.70;;;;;;5028106;28;20022;-74
2022/06/25 11:41:03;;;;;;;3.10;2.78;;;26.40;94.20;;;;;;5029818;28;20123;-75
2022/06/25 11:43:29;;;;;;;2.83;2.53;;;26.40;94.40;;;;;;5025816;28;20065;-75
2022/06/25 11:45:57;;;;;;;3.15;2.35;;;26.50;93.50;;;;;;5025852;28;20509;-74
2022/06/25 11:48:28;;;;;;;2.50;2.30;;;26.50;93.20;;;;;;5021083;28;20172;-74
2022/06/25 11:50:55;;;;;;;2.47;2.20;;;26.60;94.60;;;;;;5018922;28;20031;-75
2022/06/25 11:53:22;;;;;;;3.08;2.25;;;26.60;95.30;;;;;;5019516;28;20033;-74
2022/06/25 11:55:58;;;;;;;2.53;2.30;;;26.70;93.70;;;;;;5014726;28;20630;-74
2022/06/25 11:58:28;;;;;;;3.65;2.50;;;26.70;92.40;;;;;;5021049;28;20241;-75
2022/06/25 12:01:01;;;;;;;4.13;2.60;;;26.60;93.00;;;;;;5041655;28;20082;-73
2022/06/25 12:03:28;;;;;;;2.75;2.40;;;26.60;92.50;;;;;;5025312;28;20523;-74
2022/06/25 12:05:55;;;;;;;3.45;2.28;;;26.70;93.50;;;;;;5023869;28;20052;-75
2022/06/25 12:08:23;;;;;;;2.58;2.33;;;26.80;92.20;;;;;;5035643;28;20030;-75
2022/06/25 12:10:49;;;;;;;6.05;3.05;;;26.70;90.40;;;;;;5027963;28;20057;-75
2022/06/25 12:13:15;;;;;;;3.33;2.53;;;26.70;91.30;;;;;;5034203;28;20033;-75
2022/06/25 12:15:41;;;;;;;3.70;2.45;;;26.70;92.10;;;;;;5029898;28;20099;-75
2022/06/25 12:18:07;;;;;;;3.53;2.60;;;26.90;92.10;;;;;;5033637;28;20033;-74
2022/06/25 12:20:33;;;;;;;2.75;2.13;;;26.90;93.20;;;;;;5033691;28;20036;-74
2022/06/25 12:23:00;;;;;;;3.78;2.10;;;27.10;94.20;;;;;;5027873;28;20029;-75
2022/06/25 12:25:30;;;;;;;3.78;1.98;;;27.20;93.80;;;;;;5039446;28;20025;-74
2022/06/25 12:27:57;;;;;;;3.03;2.00;;;27.20;92.30;;;;;;5035918;28;20040;-74
2022/06/25 12:30:41;;;;;;;2.63;1.95;;;27.30;92.10;;;;;;5034002;28;20025;-75
2022/06/25 12:33:15;;;;;;;3.85;2.10;;;27.30;91.80;;;;;;5036413;28;20040;-77
2022/06/25 12:35:42;;;;;;;2.92;1.88;;;27.40;91.30;;;;;;5033532;28;20030;-75
2022/06/25 12:38:10;;;;;;;2.05;1.50;;;27.40;90.90;;;;;;5034806;28;20052;-74
2022/06/25 12:40:48;;;;;;;3.80;2.20;;;27.40;90.90;;;;;;5035326;28;20065;-75
2022/06/25 12:43:15;;;;;;;1.92;1.63;;;27.50;91.30;;;;;;5035289;28;20036;-75
2022/06/25 12:45:46;;;;;;;5.75;2.00;;;27.60;90.50;;;;;;5037185;28;20072;-75
2022/06/25 12:48:13;;;;;;;3.70;1.80;;;27.70;86.80;;;;;;5027097;28;20489;-75
2022/06/25 12:50:40;;;;;;;2.30;1.70;;;27.60;83.50;;;;;;5035521;28;20041;-75
2022/06/25 12:53:12;;;;;;;1.90;1.70;;;27.60;85.60;;;;;;5033576;28;20049;-75
2022/06/25 12:55:40;;;;;;;3.15;1.67;;;27.50;88.00;;;;;;5037044;28;20041;-75
2022/06/25 12:58:14;;;;;;;1.83;1.70;;;27.40;90.20;;;;;;5031773;28;20108;-75